Meloi — 3FOD — position and weather

sailwx.info

Track history (hours):
 
Tides and Currents Weather Stations Pressure Air Temp Water Temp Dewpoint Dewpoint Depression Visibility Wind Speed Wind Dir Waves Ship Positions

Meloi

Last reported at 2017-Jan-16 01:05 UTC. Time now 2017-Jan-19 04:35 UTC.
Position N 38°50' W 075°05'.

Length 180 m; draft 10.3 m.

Type: Ship. MMSI: 351132000.

Date/timePositionNaut miles runAvg speedWind from/ knotsBaromVisibWave heightAir tempDewpointWater temp
2017-Jan-16 01:05N 38°50' W 075°05'5 9.0
2017-Jan-16 00:33N 38°54' W 075°06'1110.7
2017-Jan-15 23:33N 39°04' W 075°11'1212.2
2017-Jan-15 22:33N 39°15' W 075°19'1313.1
2017-Jan-15 21:33N 39°24' W 075°30'1111.0
2017-Jan-15 20:33N 39°35' W 075°34'8 8.2
2017-Jan-15 19:34N 39°43' W 075°31'1 0.6
2017-Jan-15 18:32N 39°43' W 075°31'0 0.0
2017-Jan-15 17:32N 39°43' W 075°31'0 0.0
2017-Jan-15 16:32N 39°43' W 075°31'0 0.0
2017-Jan-15 15:32N 39°43' W 075°31'0 0.0
2017-Jan-15 14:32N 39°43' W 075°31'0 0.0
2017-Jan-15 13:32N 39°43' W 075°31'0 0.0
2017-Jan-15 12:32N 39°43' W 075°31'0 0.0
2017-Jan-15 11:32N 39°43' W 075°31'0 0.0
2017-Jan-15 10:32N 39°43' W 075°31'0 0.0
2017-Jan-15 09:32N 39°43' W 075°31'0 0.0
2017-Jan-15 08:32N 39°43' W 075°31'0 0.0
2017-Jan-15 07:32N 39°43' W 075°31'0 0.0
2017-Jan-15 06:29N 39°43' W 075°31'0 0.0
2017-Jan-15 05:32N 39°43' W 075°31'0 0.0
2017-Jan-15 04:32N 39°43' W 075°31'0 0.0
2017-Jan-15 03:32N 39°43' W 075°31'0 0.0
2017-Jan-15 02:32N 39°43' W 075°31'0 0.0
2017-Jan-15 01:32N 39°43' W 075°31'0 0.0
2017-Jan-15 00:32N 39°43' W 075°31'0 0.0
2017-Jan-14 23:32N 39°43' W 075°31'0 0.0
2017-Jan-14 22:32N 39°43' W 075°31'0 0.0
2017-Jan-14 21:32N 39°43' W 075°31'0 0.0
2017-Jan-14 20:32N 39°43' W 075°31'0 0.0
2017-Jan-14 19:32N 39°43' W 075°31'0 0.0
2017-Jan-14 18:32N 39°43' W 075°31'0 0.0
2017-Jan-14 17:32N 39°43' W 075°31'0 0.0
2017-Jan-14 16:32N 39°43' W 075°31'0 0.0
2017-Jan-14 15:32N 39°43' W 075°31'0 0.0
2017-Jan-14 14:32N 39°43' W 075°31'0 0.0
2017-Jan-14 13:32N 39°43' W 075°31'0 0.0
2017-Jan-14 12:32N 39°43' W 075°31'0 0.0
2017-Jan-14 11:32N 39°43' W 075°31'0 0.0
2017-Jan-14 10:32N 39°43' W 075°31'0 0.0
2017-Jan-14 09:32N 39°43' W 075°31'0 0.0
2017-Jan-14 08:32N 39°43' W 075°31'0 0.0
2017-Jan-14 07:32N 39°43' W 075°31'0 0.0
2017-Jan-14 06:32N 39°43' W 075°31'0 0.0
2017-Jan-14 05:32N 39°43' W 075°31'0 0.0
2017-Jan-14 04:32N 39°43' W 075°31'0 0.0
2017-Jan-14 03:32N 39°43' W 075°31'0 0.0
2017-Jan-13 23:32N 39°43' W 075°31'0 0.0
2017-Jan-13 22:32N 39°43' W 075°31'0 0.0
2017-Jan-13 21:32N 39°43' W 075°31'0 0.0
2017-Jan-13 20:32N 39°43' W 075°31'0 0.0
2017-Jan-13 19:32N 39°43' W 075°31'0 0.0
2017-Jan-13 18:32N 39°43' W 075°31'0 0.0
2017-Jan-13 17:32N 39°43' W 075°31'0 0.0
2017-Jan-13 16:32N 39°43' W 075°31'0 0.0
2017-Jan-13 15:32N 39°43' W 075°31'0 0.0
2017-Jan-13 14:32N 39°43' W 075°31'0 0.0
2017-Jan-13 13:32N 39°43' W 075°31'0 0.0
2017-Jan-13 12:32N 39°43' W 075°31'0 0.1
2017-Jan-13 11:34N 39°43' W 075°31'1 0.9
2017-Jan-13 10:28N 39°42' W 075°30'0 0.0
2017-Jan-13 09:31N 39°43' W 075°30'0 0.0
2017-Jan-13 08:31N 39°43' W 075°30'0 0.0
2017-Jan-13 07:31N 39°43' W 075°30'0 0.2
2017-Jan-13 06:31N 39°43' W 075°30'0 0.0
2017-Jan-13 05:31N 39°43' W 075°30'0 0.0
2017-Jan-13 04:31N 39°43' W 075°30'0 0.0
2017-Jan-13 03:31N 39°43' W 075°30'0 0.0
2017-Jan-13 02:31N 39°43' W 075°30'0 0.0
2017-Jan-13 01:31N 39°43' W 075°30'0 0.2
2017-Jan-13 00:31N 39°43' W 075°30'0 0.0
2017-Jan-12 23:31N 39°43' W 075°30'0 0.0
2017-Jan-12 22:31N 39°43' W 075°30'0 0.0
2017-Jan-12 21:31N 39°43' W 075°30'0 0.0
2017-Jan-12 20:31N 39°43' W 075°30'0 0.1
2017-Jan-12 19:31N 39°43' W 075°30'0 0.1
2017-Jan-12 18:31N 39°43' W 075°30'2 1.9
2017-Jan-12 17:33N 39°41' W 075°31'1211.8
2017-Jan-12 16:33N 39°29' W 075°34'1312.9
2017-Jan-12 15:33N 39°19' W 075°24'1313.3
2017-Jan-12 14:33N 39°08' W 075°14'1212.3
2017-Jan-12 13:33N 38°57' W 075°07'1110.6
2017-Jan-12 12:33N 38°47' W 075°01'8 8.1
2017-Jan-12 11:33N 38°42' W 074°54'8 7.3
2017-Jan-12 10:30N 38°36' W 074°47'10 1.7
2017-Jan-12 04:25N 38°30' W 074°37'0 0.0
2017-Jan-12 02:28N 38°30' W 074°37'0 0.0
2017-Jan-11 23:31N 38°30' W 074°37'0 0.0
2017-Jan-11 22:31N 38°30' W 074°37'0 0.1
2017-Jan-11 21:24N 38°30' W 074°37'7 8.8
2017-Jan-11 20:33N 38°22' W 074°37'1211.3
2017-Jan-11 19:32N 38°11' W 074°34'2 2.1
2017-Jan-11 18:30N 38°11' W 074°31'9810.4
2017-Jan-11 09:05N 36°55' W 075°50'5 8.8
2017-Jan-11 08:33N 36°55' W 075°55'10 9.5
2017-Jan-11 07:33N 37°02' W 076°04'7311.5
2017-Jan-11 01:13N 38°14' W 076°17'913.3
2017-Jan-11 00:33N 38°22' W 076°21'1711.6
2017-Jan-10 23:05N 38°39' W 076°27'711.2
2017-Jan-10 22:30N 38°45' W 076°26'1010.9
2017-Jan-10 21:33N 38°55' W 076°24'1010.4
2017-Jan-10 20:33N 39°06' W 076°24'10 9.5
2017-Jan-10 19:33N 39°13' W 076°32'5 4.7
2017-Jan-10 18:32N 39°17' W 076°36'0 0.0
2017-Jan-10 17:30N 39°17' W 076°36'0 0.0
2017-Jan-10 16:26N 39°17' W 076°36'0 0.0
2017-Jan-10 15:32N 39°17' W 076°36'0 0.0
2017-Jan-10 14:32N 39°17' W 076°36'0 0.0
2017-Jan-10 13:30N 39°17' W 076°36'0 0.0
2017-Jan-10 12:30N 39°17' W 076°36'0 0.0
2017-Jan-10 11:30N 39°17' W 076°36'0 0.0
2017-Jan-10 10:30N 39°17' W 076°36'0 0.0
2017-Jan-10 09:30N 39°17' W 076°36'0 0.0
2017-Jan-10 08:30N 39°17' W 076°36'0 0.0
2017-Jan-10 07:30N 39°17' W 076°36'0 0.0
2017-Jan-10 06:30N 39°17' W 076°36'0 0.0
2017-Jan-10 05:30N 39°17' W 076°36'0 0.0
2017-Jan-10 04:30N 39°17' W 076°36'0 0.0
2017-Jan-10 03:30N 39°17' W 076°36'0 0.0
2017-Jan-10 02:30N 39°17' W 076°36'0 0.0
2017-Jan-10 01:30N 39°17' W 076°36'0 0.0
2017-Jan-10 00:30N 39°17' W 076°36'0 0.0
2017-Jan-09 23:32N 39°17' W 076°36'0 0.0
2017-Jan-09 22:30N 39°17' W 076°36'0 0.0
2017-Jan-09 21:30N 39°17' W 076°36'0 0.0
2017-Jan-09 20:32N 39°17' W 076°36'0 0.0
2017-Jan-09 19:32N 39°17' W 076°36'0 0.0
2017-Jan-09 18:32N 39°17' W 076°36'0 0.0
2017-Jan-09 17:32N 39°17' W 076°36'0 0.0
2017-Jan-09 16:32N 39°17' W 076°36'0 0.0
2017-Jan-09 15:32N 39°17' W 076°36'0 0.0
2017-Jan-09 14:32N 39°17' W 076°36'0 0.0
2017-Jan-09 13:30N 39°17' W 076°36'0 0.0
2017-Jan-09 12:30N 39°17' W 076°36'0 0.0
2017-Jan-09 11:30N 39°17' W 076°36'0 0.0
2017-Jan-09 10:30N 39°17' W 076°36'0 0.0
2017-Jan-09 09:30N 39°17' W 076°36'0 0.0
2017-Jan-09 08:30N 39°17' W 076°36'0 0.0
2017-Jan-09 07:30N 39°17' W 076°36'0 0.0
2017-Jan-09 06:30N 39°17' W 076°36'0 0.0
2017-Jan-09 05:30N 39°17' W 076°36'0 0.0
2017-Jan-09 04:30N 39°17' W 076°36'0 0.0
2017-Jan-09 03:30N 39°17' W 076°36'0 0.0
2017-Jan-09 02:30N 39°17' W 076°36'0 0.0
2017-Jan-09 01:32N 39°17' W 076°36'0 0.0
2017-Jan-09 00:30N 39°17' W 076°36'0 0.0
2017-Jan-08 23:30N 39°17' W 076°36'0 0.0
2017-Jan-08 22:30N 39°17' W 076°36'0 0.0
2017-Jan-08 21:30N 39°17' W 076°36'0 0.0
2017-Jan-08 20:32N 39°17' W 076°36'0 0.0
2017-Jan-08 19:30N 39°17' W 076°36'0 0.0
2017-Jan-08 18:30N 39°17' W 076°36'0 0.0
2017-Jan-08 17:32N 39°17' W 076°36'0 0.0
2017-Jan-08 16:32N 39°17' W 076°36'0 0.0
2017-Jan-08 15:32N 39°17' W 076°36'0 0.0
2017-Jan-08 14:30N 39°17' W 076°36'0 0.0
2017-Jan-08 13:30N 39°17' W 076°36'0 0.0
2017-Jan-08 12:30N 39°17' W 076°36'0 0.0
2017-Jan-08 11:32N 39°17' W 076°36'0 0.0
2017-Jan-08 10:30N 39°17' W 076°36'0 0.0
2017-Jan-08 09:32N 39°17' W 076°36'0 0.0
2017-Jan-08 08:30N 39°17' W 076°36'0 0.0
2017-Jan-08 07:30N 39°17' W 076°36'0 0.0
2017-Jan-08 06:30N 39°17' W 076°36'0 0.0
2017-Jan-08 05:30N 39°17' W 076°36'0 0.0
2017-Jan-08 04:10N 39°17' W 076°36'0 0.0
2017-Jan-08 03:30N 39°17' W 076°36'0 0.0
2017-Jan-08 02:30N 39°17' W 076°36'0 0.0
2017-Jan-08 01:30N 39°17' W 076°36'0 0.0
2017-Jan-08 00:30N 39°17' W 076°36'0 0.0
2017-Jan-07 23:30N 39°17' W 076°36'0 0.0
2017-Jan-07 22:30N 39°17' W 076°36'0 0.0
2017-Jan-07 21:30N 39°17' W 076°36'0 0.0
2017-Jan-07 20:30N 39°17' W 076°36'0 0.0
2017-Jan-07 19:30N 39°17' W 076°36'0 0.0
2017-Jan-07 18:30N 39°17' W 076°36'0 0.0
2017-Jan-07 17:30N 39°17' W 076°36'0 0.0
2017-Jan-07 16:30N 39°17' W 076°36'0 0.0
2017-Jan-07 15:30N 39°17' W 076°36'0 0.0
2017-Jan-07 14:30N 39°17' W 076°36'0 0.0
2017-Jan-07 13:30N 39°17' W 076°36'0 0.0
2017-Jan-07 12:30N 39°17' W 076°36'0 0.0
2017-Jan-07 11:30N 39°17' W 076°36'0 0.0
2017-Jan-07 10:30N 39°17' W 076°36'0 0.0
2017-Jan-07 09:30N 39°17' W 076°36'0 0.0
2017-Jan-07 08:30N 39°17' W 076°36'0 0.0
2017-Jan-07 07:30N 39°17' W 076°36'0 0.0
2017-Jan-07 06:30N 39°17' W 076°36'0 0.0
2017-Jan-07 05:30N 39°17' W 076°36'0 0.0
2017-Jan-07 03:30N 39°17' W 076°36'0 0.0
2017-Jan-07 02:30N 39°17' W 076°36'0 0.0
2017-Jan-07 01:30N 39°17' W 076°36'0 0.0
2017-Jan-07 00:30N 39°17' W 076°36'0 0.0
2017-Jan-06 23:30N 39°17' W 076°36'0 0.0
2017-Jan-06 22:30N 39°17' W 076°36'0 0.0
2017-Jan-06 21:30N 39°17' W 076°36'0 0.0
2017-Jan-06 20:30N 39°17' W 076°36'0 0.0
2017-Jan-06 19:30N 39°17' W 076°36'0 0.0
2017-Jan-06 18:30N 39°17' W 076°36'0 0.0
2017-Jan-06 17:30N 39°17' W 076°36'0 0.0
2017-Jan-06 16:30N 39°17' W 076°36'0 0.0
2017-Jan-06 15:30N 39°17' W 076°36'0 0.0
2017-Jan-06 14:30N 39°17' W 076°36'0 0.0
2017-Jan-06 13:32N 39°17' W 076°36'0 0.0
2017-Jan-06 12:32N 39°17' W 076°36'0 0.0
2017-Jan-06 11:32N 39°17' W 076°36'0 0.0
2017-Jan-06 10:32N 39°17' W 076°36'0 0.0
2017-Jan-06 09:32N 39°17' W 076°36'0 0.0
2017-Jan-06 08:32N 39°17' W 076°36'0 0.0
2017-Jan-06 07:32N 39°17' W 076°36'0 0.0
2017-Jan-06 06:32N 39°17' W 076°36'0 0.0
2017-Jan-06 05:32N 39°17' W 076°36'0 0.0
2017-Jan-06 04:32N 39°17' W 076°36'0 0.0
2017-Jan-06 03:32N 39°17' W 076°36'0 0.0
2017-Jan-06 02:32N 39°17' W 076°36'0 0.0
2017-Jan-06 01:32N 39°17' W 076°36'  
Track history (hours):
 
Tides and Currents Weather Stations Pressure Air Temp Water Temp Dewpoint Dewpoint Depression Visibility Wind Speed Wind Dir Waves Ship Positions

Meloi

Last reported at 2017-Jan-16 01:05 UTC. Time now 2017-Jan-19 04:35 UTC.
Position N 38°50' W 075°05'.

Length 180 m; draft 10.3 m.

Type: Ship. MMSI: 351132000.

Date/timePositionNaut miles runAvg speedWind from/ knotsBaromVisibWave heightAir tempDewpointWater temp
2017-Jan-16 01:05N 38°50' W 075°05'5 9.0
2017-Jan-16 00:33N 38°54' W 075°06'1110.7
2017-Jan-15 23:33N 39°04' W 075°11'1212.2
2017-Jan-15 22:33N 39°15' W 075°19'1313.1
2017-Jan-15 21:33N 39°24' W 075°30'1111.0
2017-Jan-15 20:33N 39°35' W 075°34'8 8.2
2017-Jan-15 19:34N 39°43' W 075°31'1 0.6
2017-Jan-15 18:32N 39°43' W 075°31'0 0.0
2017-Jan-15 17:32N 39°43' W 075°31'0 0.0
2017-Jan-15 16:32N 39°43' W 075°31'0 0.0
2017-Jan-15 15:32N 39°43' W 075°31'0 0.0
2017-Jan-15 14:32N 39°43' W 075°31'0 0.0
2017-Jan-15 13:32N 39°43' W 075°31'0 0.0
2017-Jan-15 12:32N 39°43' W 075°31'0 0.0
2017-Jan-15 11:32N 39°43' W 075°31'0 0.0
2017-Jan-15 10:32N 39°43' W 075°31'0 0.0
2017-Jan-15 09:32N 39°43' W 075°31'0 0.0
2017-Jan-15 08:32N 39°43' W 075°31'0 0.0
2017-Jan-15 07:32N 39°43' W 075°31'0 0.0
2017-Jan-15 06:29N 39°43' W 075°31'0 0.0
2017-Jan-15 05:32N 39°43' W 075°31'0 0.0
2017-Jan-15 04:32N 39°43' W 075°31'0 0.0
2017-Jan-15 03:32N 39°43' W 075°31'0 0.0
2017-Jan-15 02:32N 39°43' W 075°31'0 0.0
2017-Jan-15 01:32N 39°43' W 075°31'0 0.0
2017-Jan-15 00:32N 39°43' W 075°31'0 0.0
2017-Jan-14 23:32N 39°43' W 075°31'0 0.0
2017-Jan-14 22:32N 39°43' W 075°31'0 0.0
2017-Jan-14 21:32N 39°43' W 075°31'0 0.0
2017-Jan-14 20:32N 39°43' W 075°31'0 0.0
2017-Jan-14 19:32N 39°43' W 075°31'0 0.0
2017-Jan-14 18:32N 39°43' W 075°31'0 0.0
2017-Jan-14 17:32N 39°43' W 075°31'0 0.0
2017-Jan-14 16:32N 39°43' W 075°31'0 0.0
2017-Jan-14 15:32N 39°43' W 075°31'0 0.0
2017-Jan-14 14:32N 39°43' W 075°31'0 0.0
2017-Jan-14 13:32N 39°43' W 075°31'0 0.0
2017-Jan-14 12:32N 39°43' W 075°31'0 0.0
2017-Jan-14 11:32N 39°43' W 075°31'0 0.0
2017-Jan-14 10:32N 39°43' W 075°31'0 0.0
2017-Jan-14 09:32N 39°43' W 075°31'0 0.0
2017-Jan-14 08:32N 39°43' W 075°31'0 0.0
2017-Jan-14 07:32N 39°43' W 075°31'0 0.0
2017-Jan-14 06:32N 39°43' W 075°31'0 0.0
2017-Jan-14 05:32N 39°43' W 075°31'0 0.0
2017-Jan-14 04:32N 39°43' W 075°31'0 0.0
2017-Jan-14 03:32N 39°43' W 075°31'0 0.0
2017-Jan-13 23:32N 39°43' W 075°31'0 0.0
2017-Jan-13 22:32N 39°43' W 075°31'0 0.0
2017-Jan-13 21:32N 39°43' W 075°31'0 0.0
2017-Jan-13 20:32N 39°43' W 075°31'0 0.0
2017-Jan-13 19:32N 39°43' W 075°31'0 0.0
2017-Jan-13 18:32N 39°43' W 075°31'0 0.0
2017-Jan-13 17:32N 39°43' W 075°31'0 0.0
2017-Jan-13 16:32N 39°43' W 075°31'0 0.0
2017-Jan-13 15:32N 39°43' W 075°31'0 0.0
2017-Jan-13 14:32N 39°43' W 075°31'0 0.0
2017-Jan-13 13:32N 39°43' W 075°31'0 0.0
2017-Jan-13 12:32N 39°43' W 075°31'0 0.1
2017-Jan-13 11:34N 39°43' W 075°31'1 0.9
2017-Jan-13 10:28N 39°42' W 075°30'0 0.0
2017-Jan-13 09:31N 39°43' W 075°30'0 0.0
2017-Jan-13 08:31N 39°43' W 075°30'0 0.0
2017-Jan-13 07:31N 39°43' W 075°30'0 0.2
2017-Jan-13 06:31N 39°43' W 075°30'0 0.0
2017-Jan-13 05:31N 39°43' W 075°30'0 0.0
2017-Jan-13 04:31N 39°43' W 075°30'0 0.0
2017-Jan-13 03:31N 39°43' W 075°30'0 0.0
2017-Jan-13 02:31N 39°43' W 075°30'0 0.0
2017-Jan-13 01:31N 39°43' W 075°30'0 0.2
2017-Jan-13 00:31N 39°43' W 075°30'0 0.0
2017-Jan-12 23:31N 39°43' W 075°30'0 0.0
2017-Jan-12 22:31N 39°43' W 075°30'0 0.0
2017-Jan-12 21:31N 39°43' W 075°30'0 0.0
2017-Jan-12 20:31N 39°43' W 075°30'0 0.1
2017-Jan-12 19:31N 39°43' W 075°30'0 0.1
2017-Jan-12 18:31N 39°43' W 075°30'2 1.9
2017-Jan-12 17:33N 39°41' W 075°31'1211.8
2017-Jan-12 16:33N 39°29' W 075°34'1312.9
2017-Jan-12 15:33N 39°19' W 075°24'1313.3
2017-Jan-12 14:33N 39°08' W 075°14'1212.3
2017-Jan-12 13:33N 38°57' W 075°07'1110.6
2017-Jan-12 12:33N 38°47' W 075°01'8 8.1
2017-Jan-12 11:33N 38°42' W 074°54'8 7.3
2017-Jan-12 10:30N 38°36' W 074°47'10 1.7
2017-Jan-12 04:25N 38°30' W 074°37'0 0.0
2017-Jan-12 02:28N 38°30' W 074°37'0 0.0
2017-Jan-11 23:31N 38°30' W 074°37'0 0.0
2017-Jan-11 22:31N 38°30' W 074°37'0 0.1
2017-Jan-11 21:24N 38°30' W 074°37'7 8.8
2017-Jan-11 20:33N 38°22' W 074°37'1211.3
2017-Jan-11 19:32N 38°11' W 074°34'2 2.1
2017-Jan-11 18:30N 38°11' W 074°31'9810.4
2017-Jan-11 09:05N 36°55' W 075°50'5 8.8
2017-Jan-11 08:33N 36°55' W 075°55'10 9.5
2017-Jan-11 07:33N 37°02' W 076°04'7311.5
2017-Jan-11 01:13N 38°14' W 076°17'913.3
2017-Jan-11 00:33N 38°22' W 076°21'1711.6
2017-Jan-10 23:05N 38°39' W 076°27'711.2
2017-Jan-10 22:30N 38°45' W 076°26'1010.9
2017-Jan-10 21:33N 38°55' W 076°24'1010.4
2017-Jan-10 20:33N 39°06' W 076°24'10 9.5
2017-Jan-10 19:33N 39°13' W 076°32'5 4.7
2017-Jan-10 18:32N 39°17' W 076°36'0 0.0
2017-Jan-10 17:30N 39°17' W 076°36'0 0.0
2017-Jan-10 16:26N 39°17' W 076°36'0 0.0
2017-Jan-10 15:32N 39°17' W 076°36'0 0.0
2017-Jan-10 14:32N 39°17' W 076°36'0 0.0
2017-Jan-10 13:30N 39°17' W 076°36'0 0.0
2017-Jan-10 12:30N 39°17' W 076°36'0 0.0
2017-Jan-10 11:30N 39°17' W 076°36'0 0.0
2017-Jan-10 10:30N 39°17' W 076°36'0 0.0
2017-Jan-10 09:30N 39°17' W 076°36'0 0.0
2017-Jan-10 08:30N 39°17' W 076°36'0 0.0
2017-Jan-10 07:30N 39°17' W 076°36'0 0.0
2017-Jan-10 06:30N 39°17' W 076°36'0 0.0
2017-Jan-10 05:30N 39°17' W 076°36'0 0.0
2017-Jan-10 04:30N 39°17' W 076°36'0 0.0
2017-Jan-10 03:30N 39°17' W 076°36'0 0.0
2017-Jan-10 02:30N 39°17' W 076°36'0 0.0
2017-Jan-10 01:30N 39°17' W 076°36'0 0.0
2017-Jan-10 00:30N 39°17' W 076°36'0 0.0
2017-Jan-09 23:32N 39°17' W 076°36'0 0.0
2017-Jan-09 22:30N 39°17' W 076°36'0 0.0
2017-Jan-09 21:30N 39°17' W 076°36'0 0.0
2017-Jan-09 20:32N 39°17' W 076°36'0 0.0
2017-Jan-09 19:32N 39°17' W 076°36'0 0.0
2017-Jan-09 18:32N 39°17' W 076°36'0 0.0
2017-Jan-09 17:32N 39°17' W 076°36'0 0.0
2017-Jan-09 16:32N 39°17' W 076°36'0 0.0
2017-Jan-09 15:32N 39°17' W 076°36'0 0.0
2017-Jan-09 14:32N 39°17' W 076°36'0 0.0
2017-Jan-09 13:30N 39°17' W 076°36'0 0.0
2017-Jan-09 12:30N 39°17' W 076°36'0 0.0
2017-Jan-09 11:30N 39°17' W 076°36'0 0.0
2017-Jan-09 10:30N 39°17' W 076°36'0 0.0
2017-Jan-09 09:30N 39°17' W 076°36'0 0.0
2017-Jan-09 08:30N 39°17' W 076°36'0 0.0
2017-Jan-09 07:30N 39°17' W 076°36'0 0.0
2017-Jan-09 06:30N 39°17' W 076°36'0 0.0
2017-Jan-09 05:30N 39°17' W 076°36'0 0.0
2017-Jan-09 04:30N 39°17' W 076°36'0 0.0
2017-Jan-09 03:30N 39°17' W 076°36'0 0.0
2017-Jan-09 02:30N 39°17' W 076°36'0 0.0
2017-Jan-09 01:32N 39°17' W 076°36'0 0.0
2017-Jan-09 00:30N 39°17' W 076°36'0 0.0
2017-Jan-08 23:30N 39°17' W 076°36'0 0.0
2017-Jan-08 22:30N 39°17' W 076°36'0 0.0
2017-Jan-08 21:30N 39°17' W 076°36'0 0.0
2017-Jan-08 20:32N 39°17' W 076°36'0 0.0
2017-Jan-08 19:30N 39°17' W 076°36'0 0.0
2017-Jan-08 18:30N 39°17' W 076°36'0 0.0
2017-Jan-08 17:32N 39°17' W 076°36'0 0.0
2017-Jan-08 16:32N 39°17' W 076°36'0 0.0
2017-Jan-08 15:32N 39°17' W 076°36'0 0.0
2017-Jan-08 14:30N 39°17' W 076°36'0 0.0
2017-Jan-08 13:30N 39°17' W 076°36'0 0.0
2017-Jan-08 12:30N 39°17' W 076°36'0 0.0
2017-Jan-08 11:32N 39°17' W 076°36'0 0.0
2017-Jan-08 10:30N 39°17' W 076°36'0 0.0
2017-Jan-08 09:32N 39°17' W 076°36'0 0.0
2017-Jan-08 08:30N 39°17' W 076°36'0 0.0
2017-Jan-08 07:30N 39°17' W 076°36'0 0.0
2017-Jan-08 06:30N 39°17' W 076°36'0 0.0
2017-Jan-08 05:30N 39°17' W 076°36'0 0.0
2017-Jan-08 04:10N 39°17' W 076°36'0 0.0
2017-Jan-08 03:30N 39°17' W 076°36'0 0.0
2017-Jan-08 02:30N 39°17' W 076°36'0 0.0
2017-Jan-08 01:30N 39°17' W 076°36'0 0.0
2017-Jan-08 00:30N 39°17' W 076°36'0 0.0
2017-Jan-07 23:30N 39°17' W 076°36'0 0.0
2017-Jan-07 22:30N 39°17' W 076°36'0 0.0
2017-Jan-07 21:30N 39°17' W 076°36'0 0.0
2017-Jan-07 20:30N 39°17' W 076°36'0 0.0
2017-Jan-07 19:30N 39°17' W 076°36'0 0.0
2017-Jan-07 18:30N 39°17' W 076°36'0 0.0
2017-Jan-07 17:30N 39°17' W 076°36'0 0.0
2017-Jan-07 16:30N 39°17' W 076°36'0 0.0
2017-Jan-07 15:30N 39°17' W 076°36'0 0.0
2017-Jan-07 14:30N 39°17' W 076°36'0 0.0
2017-Jan-07 13:30N 39°17' W 076°36'0 0.0
2017-Jan-07 12:30N 39°17' W 076°36'0 0.0
2017-Jan-07 11:30N 39°17' W 076°36'0 0.0
2017-Jan-07 10:30N 39°17' W 076°36'0 0.0
2017-Jan-07 09:30N 39°17' W 076°36'0 0.0
2017-Jan-07 08:30N 39°17' W 076°36'0 0.0
2017-Jan-07 07:30N 39°17' W 076°36'0 0.0
2017-Jan-07 06:30N 39°17' W 076°36'0 0.0
2017-Jan-07 05:30N 39°17' W 076°36'0 0.0
2017-Jan-07 03:30N 39°17' W 076°36'0 0.0
2017-Jan-07 02:30N 39°17' W 076°36'0 0.0
2017-Jan-07 01:30N 39°17' W 076°36'0 0.0
2017-Jan-07 00:30N 39°17' W 076°36'0 0.0
2017-Jan-06 23:30N 39°17' W 076°36'0 0.0
2017-Jan-06 22:30N 39°17' W 076°36'0 0.0
2017-Jan-06 21:30N 39°17' W 076°36'0 0.0
2017-Jan-06 20:30N 39°17' W 076°36'0 0.0
2017-Jan-06 19:30N 39°17' W 076°36'0 0.0
2017-Jan-06 18:30N 39°17' W 076°36'0 0.0
2017-Jan-06 17:30N 39°17' W 076°36'0 0.0
2017-Jan-06 16:30N 39°17' W 076°36'0 0.0
2017-Jan-06 15:30N 39°17' W 076°36'0 0.0
2017-Jan-06 14:30N 39°17' W 076°36'0 0.0
2017-Jan-06 13:32N 39°17' W 076°36'0 0.0
2017-Jan-06 12:32N 39°17' W 076°36'0 0.0
2017-Jan-06 11:32N 39°17' W 076°36'0 0.0
2017-Jan-06 10:32N 39°17' W 076°36'0 0.0
2017-Jan-06 09:32N 39°17' W 076°36'0 0.0
2017-Jan-06 08:32N 39°17' W 076°36'0 0.0
2017-Jan-06 07:32N 39°17' W 076°36'0 0.0
2017-Jan-06 06:32N 39°17' W 076°36'0 0.0
2017-Jan-06 05:32N 39°17' W 076°36'0 0.0
2017-Jan-06 04:32N 39°17' W 076°36'0 0.0
2017-Jan-06 03:32N 39°17' W 076°36'0 0.0
2017-Jan-06 02:32N 39°17' W 076°36'0 0.0
2017-Jan-06 01:32N 39°17' W 076°36'  

Dump ship's entire track history